Time;durP1;ratioP1;P1;durP2;ratioP2;P2;SDS_P1;SDS_P2;PMS_P1;PMS_P2;Temp;Humidity;BMP_temperature;BMP_pressure;BME280_temperature;BME280_humidity;BME280_pressure;Samples;Min_cycle;Max_cycle;Signal;HPM_P1;HPM_P2
2022/06/03 00:02:13;;;;;;;7.13;4.30;;;;;;;;;;5139439;27;20051;-79
2022/06/03 00:04:59;;;;;;;9.13;4.10;;;;;;;;;;5151800;27;20077;-79
2022/06/03 00:07:28;;;;;;;6.47;3.97;;;;;;;;;;5145538;27;20054;-79
2022/06/03 00:10:08;;;;;;;8.35;3.78;;;;;;;;;;5142984;27;20131;-79
2022/06/03 00:12:38;;;;;;;7.50;4.20;;;;;;;;;;5143998;27;20054;-79
2022/06/03 00:15:13;;;;;;;11.45;4.40;;;;;;;;;;5141890;27;20138;-79
2022/06/03 00:17:58;;;;;;;6.10;3.95;;;;;;;;;;5139058;27;20590;-79
2022/06/03 00:20:25;;;;;;;9.30;4.68;;;;;;;;;;5140223;27;20043;-79
2022/06/03 00:23:21;;;;;;;8.35;4.20;;;;;;;;;;5141941;27;20051;-79
2022/06/03 00:25:57;;;;;;;7.30;3.88;;;;;;;;;;5095186;27;20159;-79
2022/06/03 00:28:23;;;;;;;7.85;4.57;;;;;;;;;;5169132;27;20041;-79
2022/06/03 00:30:59;;;;;;;7.68;4.00;;;;;;;;;;5143388;27;20045;-80
2022/06/03 00:33:35;;;;;;;6.55;4.45;;;;;;;;;;5137448;27;20055;-79
2022/06/03 00:36:21;;;;;;;7.55;4.50;;;;;;;;;;5149181;27;20061;-80
2022/06/03 00:39:02;;;;;;;7.35;4.40;;;;;;;;;;5140042;27;20095;-79
2022/06/03 00:41:36;;;;;;;8.60;4.60;;;;;;;;;;5140193;27;20141;-79
2022/06/03 00:44:09;;;;;;;8.45;4.30;;;;;;;;;;5147230;27;20047;-79
2022/06/03 00:46:54;;;;;;;10.20;4.57;;;;;;;;;;5142729;27;20053;-79
2022/06/03 00:49:39;;;;;;;8.38;4.72;;;;;;;;;;5166281;27;20141;-80
2022/06/03 00:52:23;;;;;;;13.15;4.50;;;;;;;;;;5136337;27;20055;-79
2022/06/03 00:54:56;;;;;;;8.82;4.60;;;;;;;;;;5143836;27;20119;-79
2022/06/03 00:57:34;;;;;;;8.50;4.65;;;;;;;;;;5141766;27;20134;-79
2022/06/03 01:00:03;;;;;;;7.72;4.32;;;;;;;;;;5141915;27;20055;-79
2022/06/03 01:02:36;;;;;;;8.07;3.95;;;;;;;;;;5147437;27;20054;-80
2022/06/03 01:05:20;;;;;;;8.10;4.43;;;;;;;;;;5138661;27;20800;-79
2022/06/03 01:07:53;;;;;;;9.13;4.13;;;;;;;;;;5131565;27;20035;-79
2022/06/03 01:10:38;;;;;;;6.90;4.45;;;;;;;;;;5141486;27;20150;-79
2022/06/03 01:13:18;;;;;;;9.68;4.07;;;;;;;;;;5135028;27;20055;-78
2022/06/03 01:15:44;;;;;;;6.85;4.05;;;;;;;;;;5141242;27;20835;-79
2022/06/03 01:18:20;;;;;;;7.60;4.38;;;;;;;;;;5161810;27;20099;-79
2022/06/03 01:20:46;;;;;;;6.07;3.88;;;;;;;;;;5139382;27;20063;-79
2022/06/03 01:23:25;;;;;;;7.72;3.65;;;;;;;;;;5161863;27;20134;-79
2022/06/03 01:25:52;;;;;;;6.60;3.65;;;;;;;;;;5146142;27;20126;-79
2022/06/03 01:28:45;;;;;;;7.03;3.60;;;;;;;;;;5154114;27;20141;-79
2022/06/03 01:31:11;;;;;;;8.63;3.95;;;;;;;;;;5117858;27;20051;-80
2022/06/03 01:33:37;;;;;;;6.97;3.88;;;;;;;;;;5152085;27;20084;-80
2022/06/03 01:36:17;;;;;;;7.05;3.70;;;;;;;;;;5166460;27;20142;-79
2022/06/03 01:38:53;;;;;;;6.55;3.95;;;;;;;;;;5164611;27;20054;-79
2022/06/03 01:41:31;;;;;;;5.97;3.45;;;;;;;;;;5155535;27;20047;-79
2022/06/03 01:44:07;;;;;;;7.07;3.45;;;;;;;;;;5144464;27;20059;-79
2022/06/03 01:46:38;;;;;;;7.38;3.60;;;;;;;;;;5145489;27;20051;-79
2022/06/03 01:49:15;;;;;;;8.93;3.65;;;;;;;;;;5140365;27;20777;-78
2022/06/03 01:52:00;;;;;;;6.68;4.05;;;;;;;;;;5143168;27;20055;-79
2022/06/03 01:54:45;;;;;;;7.10;3.78;;;;;;;;;;5143271;27;20039;-78
2022/06/03 01:57:18;;;;;;;6.07;3.63;;;;;;;;;;5144038;27;20078;-79
2022/06/03 02:00:05;;;;;;;7.13;3.92;;;;;;;;;;5148533;27;20089;-79
2022/06/03 02:03:05;;;;;;;9.85;3.67;;;;;;;;;;5142378;27;20083;-79
2022/06/03 02:05:37;;;;;;;8.77;4.17;;;;;;;;;;5088909;27;20081;-79
2022/06/03 02:08:10;;;;;;;7.07;3.63;;;;;;;;;;5149116;27;20289;-79
2022/06/03 02:10:39;;;;;;;9.50;4.15;;;;;;;;;;5149464;27;20055;-79
2022/06/03 02:13:13;;;;;;;7.85;3.65;;;;;;;;;;5137558;27;20174;-79
2022/06/03 02:15:59;;;;;;;7.18;4.00;;;;;;;;;;5173010;27;20057;-79
2022/06/03 02:18:40;;;;;;;5.30;3.33;;;;;;;;;;5160979;27;20047;-79
2022/06/03 02:21:30;;;;;;;6.80;3.85;;;;;;;;;;5162627;27;20107;-79
2022/06/03 02:24:20;;;;;;;7.60;3.92;;;;;;;;;;5168402;27;20158;-79
2022/06/03 02:26:56;;;;;;;7.53;3.92;;;;;;;;;;5097424;27;20053;-80
2022/06/03 02:32:23;;;;;;;6.82;3.63;;;;;;;;;;5160006;27;20850;-79
2022/06/03 02:34:49;;;;;;;7.15;4.20;;;;;;;;;;5169483;27;20145;-80
2022/06/03 02:37:39;;;;;;;8.25;4.03;;;;;;;;;;5170128;27;20069;-79
2022/06/03 02:40:24;;;;;;;5.80;3.60;;;;;;;;;;5131020;27;20058;-79
2022/06/03 02:43:09;;;;;;;7.55;3.92;;;;;;;;;;5140870;27;20065;-80
2022/06/03 02:45:52;;;;;;;6.43;3.60;;;;;;;;;;5147947;27;20084;-79
2022/06/03 02:48:30;;;;;;;5.72;3.40;;;;;;;;;;5148316;27;20359;-79
2022/06/03 02:50:56;;;;;;;7.20;3.53;;;;;;;;;;5142722;27;20059;-79
2022/06/03 02:53:38;;;;;;;10.27;3.67;;;;;;;;;;5148291;27;20058;-79
2022/06/03 02:56:11;;;;;;;7.70;3.95;;;;;;;;;;5147978;27;20089;-79
2022/06/03 02:58:56;;;;;;;5.93;3.67;;;;;;;;;;5168903;27;21192;-79
2022/06/03 03:01:25;;;;;;;9.52;3.28;;;;;;;;;;5160351;27;20082;-80
2022/06/03 03:04:04;;;;;;;6.20;3.63;;;;;;;;;;5146388;27;20055;-79
2022/06/03 03:06:49;;;;;;;10.30;4.00;;;;;;;;;;5148924;27;20857;-79
2022/06/03 03:09:24;;;;;;;6.10;3.75;;;;;;;;;;5136895;27;20067;-79
2022/06/03 03:12:13;;;;;;;6.40;3.88;;;;;;;;;;5166536;27;20158;-79
2022/06/03 03:14:51;;;;;;;8.40;4.10;;;;;;;;;;5144023;27;20443;-79
2022/06/03 03:17:44;;;;;;;8.38;4.00;;;;;;;;;;5154649;27;20082;-80
2022/06/03 03:20:19;;;;;;;7.60;4.22;;;;;;;;;;5164049;27;20043;-79
2022/06/03 03:23:05;;;;;;;8.20;4.20;;;;;;;;;;5168411;27;20252;-79
2022/06/03 03:25:34;;;;;;;7.32;3.33;;;;;;;;;;5140554;27;20103;-79
2022/06/03 03:28:19;;;;;;;8.43;3.67;;;;;;;;;;5145556;27;20057;-80
2022/06/03 03:30:48;;;;;;;6.85;3.97;;;;;;;;;;5142686;27;20054;-80
2022/06/03 03:33:43;;;;;;;7.55;4.32;;;;;;;;;;5148876;27;21030;-79
2022/06/03 03:36:24;;;;;;;9.20;4.63;;;;;;;;;;5138356;27;20571;-79
2022/06/03 03:38:56;;;;;;;8.10;4.45;;;;;;;;;;5156789;27;20131;-79
2022/06/03 03:41:41;;;;;;;8.40;4.13;;;;;;;;;;5167925;27;20078;-79
2022/06/03 03:44:26;;;;;;;7.72;4.20;;;;;;;;;;5166005;27;20054;-78
2022/06/03 03:47:11;;;;;;;7.90;4.65;;;;;;;;;;5132682;27;20146;-79
2022/06/03 03:49:57;;;;;;;7.63;4.25;;;;;;;;;;5149568;27;20484;-79
2022/06/03 03:52:44;;;;;;;11.23;4.60;;;;;;;;;;5135883;27;20493;-79
2022/06/03 03:55:49;;;;;;;9.35;4.80;;;;;;;;;;5151497;27;20055;-79
2022/06/03 03:58:25;;;;;;;9.80;3.95;;;;;;;;;;5153411;27;20930;-79
2022/06/03 04:01:18;;;;;;;7.63;4.55;;;;;;;;;;5137068;27;20055;-79
2022/06/03 04:03:44;;;;;;;7.65;4.43;;;;;;;;;;5151501;27;20060;-79
2022/06/03 04:06:31;;;;;;;8.60;4.68;;;;;;;;;;5170354;27;20093;-79
2022/06/03 04:09:13;;;;;;;7.95;4.82;;;;;;;;;;5153376;27;20063;-79
2022/06/03 04:11:48;;;;;;;7.85;4.68;;;;;;;;;;5139887;27;20449;-79
2022/06/03 04:14:34;;;;;;;10.68;4.57;;;;;;;;;;5138594;27;20098;-80
2022/06/03 04:17:09;;;;;;;7.35;4.88;;;;;;;;;;5149462;27;20504;-80
2022/06/03 04:20:00;;;;;;;9.98;4.85;;;;;;;;;;5137777;27;20070;-80
2022/06/03 04:22:36;;;;;;;7.40;4.75;;;;;;;;;;5159031;27;20059;-81
2022/06/03 04:25:02;;;;;;;10.13;5.45;;;;;;;;;;5161772;27;20441;-80
2022/06/03 04:27:40;;;;;;;12.18;5.13;;;;;;;;;;5140134;27;20560;-81
2022/06/03 04:30:18;;;;;;;9.25;5.00;;;;;;;;;;5133840;27;20047;-80
2022/06/03 04:33:00;;;;;;;10.60;5.25;;;;;;;;;;5144820;27;20164;-81
2022/06/03 04:35:45;;;;;;;8.45;4.95;;;;;;;;;;5150376;27;20097;-80
2022/06/03 04:38:30;;;;;;;9.00;5.47;;;;;;;;;;5146290;27;20562;-80
2022/06/03 04:41:15;;;;;;;9.43;5.00;;;;;;;;;;5135401;27;20059;-80
2022/06/03 04:44:00;;;;;;;12.07;5.28;;;;;;;;;;5151332;27;20061;-80
2022/06/03 04:46:42;;;;;;;10.60;4.85;;;;;;;;;;5155563;27;20065;-80
2022/06/03 04:49:10;;;;;;;8.55;5.40;;;;;;;;;;5142778;27;20061;-80
2022/06/03 04:51:51;;;;;;;8.65;4.93;;;;;;;;;;5162365;27;20051;-81
2022/06/03 04:54:24;;;;;;;8.25;5.13;;;;;;;;;;5163223;27;20574;-80
2022/06/03 04:56:57;;;;;;;8.25;5.10;;;;;;;;;;5153589;27;20058;-80
2022/06/03 04:59:23;;;;;;;10.80;5.15;;;;;;;;;;5172759;27;20077;-80
2022/06/03 05:02:08;;;;;;;12.10;6.18;;;;;;;;;;5145137;27;20051;-80
2022/06/03 05:04:55;;;;;;;8.50;4.63;;;;;;;;;;5172521;27;21297;-81
2022/06/03 05:07:39;;;;;;;8.95;5.07;;;;;;;;;;5165031;27;20516;-80
2022/06/03 05:10:06;;;;;;;18.10;5.72;;;;;;;;;;5152145;27;20062;-80
2022/06/03 05:12:51;;;;;;;9.93;4.72;;;;;;;;;;5146477;27;20585;-81
2022/06/03 05:15:26;;;;;;;13.05;5.38;;;;;;;;;;5142347;27;20057;-80
2022/06/03 05:17:57;;;;;;;8.30;4.95;;;;;;;;;;5142189;27;20035;-80
2022/06/03 05:20:29;;;;;;;9.52;5.07;;;;;;;;;;5147405;27;20137;-80
2022/06/03 05:22:56;;;;;;;10.02;5.32;;;;;;;;;;5170891;27;20086;-80
2022/06/03 05:25:31;;;;;;;11.00;5.35;;;;;;;;;;5181213;27;20058;-81
2022/06/03 05:28:07;;;;;;;11.48;5.78;;;;;;;;;;5143673;27;20150;-81
2022/06/03 05:30:54;;;;;;;9.32;5.80;;;;;;;;;;5145388;27;20043;-81
2022/06/03 05:33:21;;;;;;;9.90;5.22;;;;;;;;;;5141302;27;20143;-81
2022/06/03 05:36:06;;;;;;;10.40;5.10;;;;;;;;;;5150068;27;20043;-79
2022/06/03 05:38:55;;;;;;;11.10;5.55;;;;;;;;;;5133931;27;20662;-79
2022/06/03 05:44:27;;;;;;;9.82;5.20;;;;;;;;;;5152813;27;20138;-79
2022/06/03 05:47:04;;;;;;;9.38;4.90;;;;;;;;;;5168006;27;20377;-80
2022/06/03 05:49:33;;;;;;;8.55;4.82;;;;;;;;;;5145857;27;20050;-80
2022/06/03 05:52:21;;;;;;;12.05;5.03;;;;;;;;;;5149754;27;20052;-80
2022/06/03 05:54:51;;;;;;;9.43;5.00;;;;;;;;;;5166563;27;20138;-80
2022/06/03 05:57:36;;;;;;;8.65;4.40;;;;;;;;;;5139985;27;20855;-80
2022/06/03 06:00:08;;;;;;;9.32;4.75;;;;;;;;;;5146409;27;20157;-80
2022/06/03 06:02:57;;;;;;;9.55;5.15;;;;;;;;;;5136861;27;20051;-80
2022/06/03 06:05:32;;;;;;;9.20;4.35;;;;;;;;;;5124013;27;20047;-80
2022/06/03 06:08:06;;;;;;;11.88;4.25;;;;;;;;;;5155263;27;20114;-80
2022/06/03 06:10:37;;;;;;;6.75;4.53;;;;;;;;;;5154207;27;20542;-80
2022/06/03 06:13:03;;;;;;;;;;;;;;;;;;5154347;27;20047;-80
2022/06/03 06:15:35;;;;;;;7.45;4.60;;;;;;;;;;5135405;27;42977;-80
2022/06/03 06:18:21;;;;;;;7.50;4.60;;;;;;;;;;5132549;27;20059;-80
2022/06/03 06:21:00;;;;;;;7.82;4.28;;;;;;;;;;5155442;27;20047;-80
2022/06/03 06:23:36;;;;;;;8.30;4.35;;;;;;;;;;5130392;27;20051;-80
2022/06/03 06:26:16;;;;;;;6.85;4.63;;;;;;;;;;5137298;27;20066;-80
2022/06/03 06:28:46;;;;;;;10.32;4.68;;;;;;;;;;5155846;27;20141;-80
2022/06/03 06:31:21;;;;;;;11.93;4.55;;;;;;;;;;5136160;27;20062;-80
2022/06/03 06:34:03;;;;;;;9.27;4.47;;;;;;;;;;5157985;27;20062;-80
2022/06/03 06:36:44;;;;;;;9.05;4.60;;;;;;;;;;5142025;27;20509;-80
2022/06/03 06:39:17;;;;;;;9.02;4.25;;;;;;;;;;5137922;27;20864;-80
2022/06/03 06:41:51;;;;;;;9.38;4.82;;;;;;;;;;5131750;27;20059;-80
2022/06/03 06:44:31;;;;;;;9.35;4.10;;;;;;;;;;5154713;27;20096;-80
2022/06/03 06:47:09;;;;;;;7.28;3.83;;;;;;;;;;5161018;27;20054;-80
2022/06/03 06:49:43;;;;;;;7.32;4.50;;;;;;;;;;5149199;27;20061;-80
2022/06/03 06:52:18;;;;;;;11.52;4.43;;;;;;;;;;5170598;27;20055;-80
2022/06/03 06:55:03;;;;;;;8.02;4.68;;;;;;;;;;5151540;27;20057;-80
2022/06/03 06:57:33;;;;;;;6.90;4.55;;;;;;;;;;5151483;27;20063;-79
2022/06/03 07:00:09;;;;;;;10.45;4.05;;;;;;;;;;5149659;27;20139;-79
2022/06/03 07:02:45;;;;;;;9.25;4.05;;;;;;;;;;5140320;27;20633;-79
2022/06/03 07:05:17;;;;;;;8.75;4.20;;;;;;;;;;5151646;27;20143;-79
2022/06/03 07:07:47;;;;;;;7.03;4.30;;;;;;;;;;5169647;27;20037;-79
2022/06/03 07:10:28;;;;;;;7.60;4.10;;;;;;;;;;5153860;27;20504;-80
2022/06/03 07:13:03;;;;;;;7.90;4.28;;;;;;;;;;5152366;27;20773;-79
2022/06/03 07:15:29;;;;;;;8.90;4.38;;;;;;;;;;5153541;27;20097;-80
2022/06/03 07:21:07;;;;;;;8.57;4.50;;;;;;;;;;5171777;27;20096;-79
2022/06/03 07:23:42;;;;;;;6.47;3.90;;;;;;;;;;5153257;27;20465;-80
2022/06/03 07:26:19;;;;;;;7.03;3.95;;;;;;;;;;5172855;27;20133;-79
2022/06/03 07:28:53;;;;;;;8.23;4.15;;;;;;;;;;5132061;27;20123;-80
2022/06/03 07:31:28;;;;;;;8.07;4.40;;;;;;;;;;5151319;27;20372;-80
2022/06/03 07:34:01;;;;;;;8.88;4.97;;;;;;;;;;5152983;27;20047;-80
2022/06/03 07:36:31;;;;;;;7.10;4.90;;;;;;;;;;5169086;27;20054;-79
2022/06/03 07:39:03;;;;;;;7.63;4.38;;;;;;;;;;5149515;27;20061;-79
2022/06/03 07:41:37;;;;;;;7.05;4.72;;;;;;;;;;5169060;27;20054;-79
2022/06/03 07:44:19;;;;;;;7.10;4.43;;;;;;;;;;5166132;27;20728;-79
2022/06/03 07:46:52;;;;;;;7.13;4.00;;;;;;;;;;5134995;27;20108;-80
2022/06/03 07:49:21;;;;;;;7.88;4.63;;;;;;;;;;5135164;27;20150;-80
2022/06/03 07:51:50;;;;;;;9.10;4.40;;;;;;;;;;5147479;27;20580;-79
2022/06/03 07:54:21;;;;;;;7.18;4.53;;;;;;;;;;5141795;27;20137;-79
2022/06/03 07:56:47;;;;;;;7.22;4.50;;;;;;;;;;5159328;27;20047;-79
2022/06/03 07:59:18;;;;;;;7.68;4.47;;;;;;;;;;5150846;27;20137;-79
2022/06/03 08:01:56;;;;;;;8.90;4.35;;;;;;;;;;5160954;27;20809;-79
2022/06/03 08:04:34;;;;;;;6.80;4.10;;;;;;;;;;5159130;27;20047;-79
2022/06/03 08:12:54;;;;;;;6.28;4.43;;;;;;;;;;5146239;27;20051;-79
2022/06/03 08:15:45;;;;;;;10.57;4.70;;;;;;;;;;5144044;27;20520;-78
2022/06/03 08:18:14;;;;;;;9.13;4.53;;;;;;;;;;5126929;27;20055;-78
2022/06/03 08:20:45;;;;;;;7.82;4.47;;;;;;;;;;5154972;27;20090;-79
2022/06/03 08:23:11;;;;;;;8.18;4.35;;;;;;;;;;5133007;27;21680;-79
2022/06/03 08:25:40;;;;;;;6.47;3.80;;;;;;;;;;5144147;27;20162;-79
2022/06/03 08:28:07;;;;;;;9.25;4.57;;;;;;;;;;5142948;27;20138;-79
2022/06/03 08:30:33;;;;;;;8.30;4.28;;;;;;;;;;5160381;27;20145;-79
2022/06/03 08:33:04;;;;;;;7.82;4.20;;;;;;;;;;5150353;27;20062;-79
2022/06/03 08:35:33;;;;;;;8.85;4.50;;;;;;;;;;5136463;27;20051;-79
2022/06/03 08:38:02;;;;;;;11.55;4.32;;;;;;;;;;5135952;27;20086;-79
2022/06/03 08:40:34;;;;;;;9.07;4.32;;;;;;;;;;5134156;27;20513;-79
2022/06/03 08:43:06;;;;;;;8.65;4.40;;;;;;;;;;5160628;27;20509;-79
2022/06/03 08:45:39;;;;;;;8.35;4.32;;;;;;;;;;5142040;27;20059;-79
2022/06/03 08:48:09;;;;;;;8.27;3.83;;;;;;;;;;5140270;27;20063;-79
2022/06/03 08:50:40;;;;;;;7.25;4.18;;;;;;;;;;5140426;27;20047;-79
2022/06/03 08:53:11;;;;;;;7.82;4.13;;;;;;;;;;5150473;27;20035;-79
2022/06/03 08:55:59;;;;;;;6.85;4.00;;;;;;;;;;5146249;27;20494;-79
2022/06/03 08:58:35;;;;;;;15.70;4.13;;;;;;;;;;5137889;27;20617;-78
2022/06/03 09:01:11;;;;;;;6.50;3.92;;;;;;;;;;5143243;27;20190;-79
2022/06/03 09:03:42;;;;;;;7.45;4.28;;;;;;;;;;5167228;27;20911;-79
2022/06/03 09:06:16;;;;;;;6.15;3.72;;;;;;;;;;5151712;27;20114;-79
2022/06/03 09:08:46;;;;;;;6.63;4.00;;;;;;;;;;5145613;27;20134;-79
2022/06/03 09:11:15;;;;;;;5.43;3.88;;;;;;;;;;5157333;27;20054;-79
2022/06/03 09:13:41;;;;;;;6.05;4.00;;;;;;;;;;5168062;27;20175;-79
2022/06/03 09:16:10;;;;;;;7.85;3.47;;;;;;;;;;5154055;27;20144;-79
2022/06/03 09:18:41;;;;;;;9.45;4.03;;;;;;;;;;5179979;27;20051;-79
2022/06/03 09:21:08;;;;;;;6.88;3.72;;;;;;;;;;5156297;27;20974;-79
2022/06/03 09:23:42;;;;;;;6.10;3.00;;;;;;;;;;5154455;27;20127;-79
2022/06/03 09:26:17;;;;;;;9.50;3.50;;;;;;;;;;5126871;27;20043;-79
2022/06/03 09:28:45;;;;;;;6.18;2.60;;;;;;;;;;5161404;27;20133;-79
2022/06/03 09:31:13;;;;;;;6.85;2.95;;;;;;;;;;5136131;27;20086;-79
2022/06/03 09:33:52;;;;;;;5.88;3.08;;;;;;;;;;5137641;27;20044;-79
2022/06/03 09:36:19;;;;;;;34.15;5.07;;;;;;;;;;5145429;27;20039;-79
2022/06/03 09:38:48;;;;;;;6.97;3.22;;;;;;;;;;5140563;27;20051;-79
2022/06/03 09:41:16;;;;;;;7.33;3.50;;;;;;;;;;5175755;27;21053;-79
2022/06/03 09:43:45;;;;;;;7.35;3.35;;;;;;;;;;5165546;27;20279;-79
2022/06/03 09:46:12;;;;;;;8.02;3.35;;;;;;;;;;5157770;27;20090;-79
2022/06/03 09:48:41;;;;;;;6.22;3.10;;;;;;;;;;5151510;27;20077;-79
2022/06/03 09:51:10;;;;;;;15.90;2.92;;;;;;;;;;5150344;27;20061;-79
2022/06/03 09:53:40;;;;;;;5.93;2.78;;;;;;;;;;5144970;27;20071;-79
2022/06/03 09:56:12;;;;;;;5.18;2.80;;;;;;;;;;5142546;27;20072;-78
2022/06/03 09:58:40;;;;;;;5.00;2.63;;;;;;;;;;5138647;27;21417;-78
2022/06/03 10:01:09;;;;;;;7.43;3.00;;;;;;;;;;5145784;27;20035;-77
2022/06/03 10:03:35;;;;;;;9.32;2.72;;;;;;;;;;5150774;27;20138;-78
2022/06/03 10:06:03;;;;;;;6.60;2.58;;;;;;;;;;5147045;27;20054;-78
2022/06/03 10:14:01;;;;;;;5.65;2.22;;;;;;;;;;5168211;27;20054;-78
2022/06/03 10:16:28;;;;;;;5.82;2.15;;;;;;;;;;5141961;27;20050;-78
2022/06/03 10:18:58;;;;;;;4.55;2.28;;;;;;;;;;5148511;27;20505;-78
2022/06/03 10:21:25;;;;;;;4.28;2.15;;;;;;;;;;5137473;27;20052;-78
2022/06/03 10:23:51;;;;;;;5.00;2.35;;;;;;;;;;5140172;27;20091;-77
2022/06/03 10:26:51;;;;;;;4.10;2.08;;;;;;;;;;5159366;27;20055;-77
2022/06/03 10:29:19;;;;;;;3.83;1.95;;;;;;;;;;5148980;27;20087;-77
2022/06/03 10:32:06;;;;;;;3.40;1.70;;;;;;;;;;5137640;27;20078;-78
2022/06/03 10:34:42;;;;;;;4.97;1.83;;;;;;;;;;5146421;27;20124;-78
2022/06/03 10:37:10;;;;;;;5.25;1.70;;;;;;;;;;5140920;27;20065;-78
2022/06/03 10:39:39;;;;;;;4.55;1.80;;;;;;;;;;5157146;27;20081;-78
2022/06/03 10:42:06;;;;;;;4.75;1.75;;;;;;;;;;5149771;27;21014;-78
2022/06/03 10:44:34;;;;;;;3.88;1.67;;;;;;;;;;5152629;27;20138;-77
2022/06/03 10:47:04;;;;;;;4.93;1.70;;;;;;;;;;5130452;27;20108;-77
2022/06/03 10:49:32;;;;;;;9.05;1.70;;;;;;;;;;5138436;27;20535;-77
2022/06/03 11:03:06;;;;;;;3.22;1.50;;;;;;;;;;5156893;27;20137;-76
2022/06/03 11:05:35;;;;;;;3.60;1.70;;;;;;;;;;5164028;27;20131;-76
2022/06/03 11:08:08;;;;;;;4.05;1.58;;;;;;;;;;5156035;27;20051;-76
2022/06/03 11:10:38;;;;;;;4.85;1.60;;;;;;;;;;5137731;27;20166;-77
2022/06/03 11:13:13;;;;;;;3.22;1.40;;;;;;;;;;5139373;27;20054;-76
2022/06/03 11:15:41;;;;;;;3.45;1.55;;;;;;;;;;5159289;27;20209;-76
2022/06/03 11:18:15;;;;;;;3.55;1.42;;;;;;;;;;5160062;27;20154;-76
2022/06/03 11:20:42;;;;;;;3.65;1.52;;;;;;;;;;5135446;27;20119;-78
2022/06/03 11:23:10;;;;;;;5.63;1.60;;;;;;;;;;5133628;27;20130;-76
2022/06/03 11:25:38;;;;;;;8.27;1.90;;;;;;;;;;5155375;27;20520;-76
2022/06/03 11:28:08;;;;;;;4.68;1.80;;;;;;;;;;5161249;27;20143;-76
2022/06/03 11:30:39;;;;;;;3.97;1.75;;;;;;;;;;5156495;27;20158;-76
2022/06/03 11:33:09;;;;;;;5.38;2.08;;;;;;;;;;5125557;27;20139;-76
2022/06/03 11:35:42;;;;;;;3.83;1.90;;;;;;;;;;5154912;27;20078;-76
2022/06/03 11:38:10;;;;;;;4.53;2.28;;;;;;;;;;5127623;27;20062;-76
2022/06/03 11:40:39;;;;;;;4.57;2.00;;;;;;;;;;5158727;27;20076;-76
2022/06/03 11:43:15;;;;;;;4.80;2.55;;;;;;;;;;5160012;27;20258;-75
2022/06/03 11:46:07;;;;;;;5.03;1.73;;;;;;;;;;5153602;27;20139;-77
2022/06/03 11:48:41;;;;;;;4.55;1.88;;;;;;;;;;5156342;27;20050;-77
2022/06/03 11:51:08;;;;;;;4.30;1.73;;;;;;;;;;5150667;27;20225;-77
2022/06/03 11:53:37;;;;;;;4.55;1.48;;;;;;;;;;5146462;27;20374;-77
2022/06/03 11:56:04;;;;;;;4.47;2.07;;;;;;;;;;5133266;27;20071;-77
2022/06/03 11:58:33;;;;;;;3.38;1.55;;;;;;;;;;5158949;27;20305;-78
2022/06/03 12:01:03;;;;;;;4.50;1.75;;;;;;;;;;5135998;27;20138;-78
2022/06/03 12:03:43;;;;;;;6.90;4.97;;;;;;;;;;5132104;27;20101;-77
2022/06/03 12:06:13;;;;;;;10.35;5.85;;;;;;;;;;5135698;27;20523;-76
2022/06/03 12:08:44;;;;;;;8.23;3.40;;;;;;;;;;5139874;27;20050;-77
2022/06/03 12:14:19;;;;;;;5.03;2.40;;;;;;;;;;5146922;27;20055;-77
2022/06/03 12:16:54;;;;;;;3.90;1.70;;;;;;;;;;5126296;27;20069;-77
2022/06/03 12:19:39;;;;;;;3.28;1.67;;;;;;;;;;5163219;27;20054;-77
2022/06/03 12:22:29;;;;;;;7.00;2.00;;;;;;;;;;5134920;27;20074;-77
2022/06/03 12:25:33;;;;;;;4.25;1.80;;;;;;;;;;5136039;27;20610;-77
2022/06/03 12:28:02;;;;;;;4.15;1.70;;;;;;;;;;5150689;27;20130;-77
2022/06/03 12:30:38;;;;;;;3.50;1.73;;;;;;;;;;5141519;27;20082;-77
2022/06/03 12:33:08;;;;;;;12.25;2.20;;;;;;;;;;5166031;27;20082;-76
2022/06/03 12:35:56;;;;;;;7.03;1.60;;;;;;;;;;5142340;27;21096;-76
2022/06/03 12:38:38;;;;;;;3.50;1.70;;;;;;;;;;5130639;27;20059;-76
2022/06/03 12:41:05;;;;;;;4.03;1.60;;;;;;;;;;5158238;27;20062;-76
2022/06/03 12:43:52;;;;;;;3.75;1.48;;;;;;;;;;5142604;27;20047;-76
2022/06/03 12:46:37;;;;;;;4.13;1.70;;;;;;;;;;5124543;27;20054;-76
2022/06/03 12:49:04;;;;;;;5.95;1.67;;;;;;;;;;5148791;27;20166;-76
2022/06/03 12:51:33;;;;;;;6.32;1.85;;;;;;;;;;5152989;27;20123;-76
2022/06/03 12:54:04;;;;;;;6.18;1.88;;;;;;;;;;5146750;27;20043;-76
2022/06/03 12:56:38;;;;;;;3.80;1.67;;;;;;;;;;5151673;27;20051;-76
2022/06/03 12:59:09;;;;;;;4.30;1.70;;;;;;;;;;5155549;27;20150;-76
2022/06/03 13:01:44;;;;;;;2.88;1.58;;;;;;;;;;5155059;27;20057;-76
2022/06/03 13:04:29;;;;;;;5.13;1.70;;;;;;;;;;5150584;27;20055;-76
2022/06/03 13:07:14;;;;;;;8.95;1.80;;;;;;;;;;5130486;27;20055;-77
2022/06/03 13:09:51;;;;;;;5.05;1.95;;;;;;;;;;5129025;27;20082;-77
2022/06/03 13:12:31;;;;;;;4.25;1.55;;;;;;;;;;5143205;27;20081;-76
2022/06/03 13:15:16;;;;;;;3.97;1.50;;;;;;;;;;5159146;27;20082;-77
2022/06/03 13:17:55;;;;;;;5.65;1.80;;;;;;;;;;5126562;27;20051;-77
2022/06/03 13:20:48;;;;;;;3.47;1.63;;;;;;;;;;5156262;27;20050;-77
2022/06/03 13:23:30;;;;;;;4.97;1.88;;;;;;;;;;5133845;27;20047;-77
2022/06/03 13:26:16;;;;;;;3.42;1.52;;;;;;;;;;5144371;27;20500;-76
2022/06/03 13:28:43;;;;;;;6.72;1.65;;;;;;;;;;5129223;27;20055;-77
2022/06/03 13:31:10;;;;;;;3.00;1.52;;;;;;;;;;5143540;27;20070;-77
2022/06/03 13:33:55;;;;;;;5.28;1.80;;;;;;;;;;5154449;27;20119;-76
2022/06/03 13:36:33;;;;;;;2.92;1.45;;;;;;;;;;5145127;27;20057;-76
2022/06/03 13:38:59;;;;;;;3.80;1.70;;;;;;;;;;5155375;27;20046;-77
2022/06/03 13:44:36;;;;;;;3.20;1.60;;;;;;;;;;5160251;27;20431;-76
2022/06/03 13:47:06;;;;;;;6.65;1.80;;;;;;;;;;5128522;27;20064;-77
2022/06/03 13:49:33;;;;;;;6.32;1.90;;;;;;;;;;5159705;27;20501;-76
2022/06/03 13:52:04;;;;;;;4.18;1.60;;;;;;;;;;5136140;27;20118;-76
2022/06/03 13:54:33;;;;;;;6.20;1.65;;;;;;;;;;5141047;27;20050;-77
2022/06/03 13:57:07;;;;;;;4.03;1.63;;;;;;;;;;5154253;27;20050;-77
2022/06/03 13:59:37;;;;;;;3.63;1.50;;;;;;;;;;5150987;27;20050;-76
2022/06/03 14:02:14;;;;;;;4.18;1.60;;;;;;;;;;5156945;27;20071;-76
2022/06/03 14:04:47;;;;;;;3.05;1.52;;;;;;;;;;5160689;27;20058;-77
2022/06/03 14:07:22;;;;;;;4.15;1.83;;;;;;;;;;5138739;27;20137;-76
2022/06/03 14:09:50;;;;;;;4.18;1.65;;;;;;;;;;5128465;27;20134;-76
2022/06/03 14:12:20;;;;;;;4.95;1.75;;;;;;;;;;5149117;27;20051;-77
2022/06/03 14:15:06;;;;;;;4.57;1.63;;;;;;;;;;5159104;27;20505;-76
2022/06/03 14:17:44;;;;;;;3.10;1.50;;;;;;;;;;5156788;27;20509;-76
2022/06/03 14:20:15;;;;;;;3.95;1.40;;;;;;;;;;5162938;27;20440;-76
2022/06/03 14:22:50;;;;;;;7.32;1.73;;;;;;;;;;5128787;27;20116;-76
2022/06/03 14:25:22;;;;;;;3.13;1.45;;;;;;;;;;5137698;27;20145;-76
2022/06/03 14:27:56;;;;;;;3.95;1.50;;;;;;;;;;5162793;27;20509;-77
2022/06/03 14:30:31;;;;;;;6.28;1.65;;;;;;;;;;5150633;27;20511;-76
2022/06/03 14:32:58;;;;;;;6.20;1.45;;;;;;;;;;5146066;27;20052;-76
2022/06/03 14:35:27;;;;;;;3.22;1.40;;;;;;;;;;5144699;27;20649;-77
2022/06/03 14:38:01;;;;;;;4.22;1.48;;;;;;;;;;5146386;27;20090;-77
2022/06/03 14:40:31;;;;;;;4.22;1.48;;;;;;;;;;5147690;27;20110;-75
2022/06/03 14:42:59;;;;;;;3.60;1.48;;;;;;;;;;5132338;27;20063;-76
2022/06/03 14:45:28;;;;;;;4.22;1.45;;;;;;;;;;5127962;27;20506;-76
2022/06/03 14:47:59;;;;;;;4.60;1.50;;;;;;;;;;5135950;27;20095;-76
2022/06/03 14:50:27;;;;;;;4.75;1.60;;;;;;;;;;5134075;27;20141;-76
2022/06/03 14:52:59;;;;;;;3.63;1.50;;;;;;;;;;5140007;27;20630;-77
2022/06/03 14:55:39;;;;;;;2.92;1.30;;;;;;;;;;5145204;27;20511;-76
2022/06/03 14:58:18;;;;;;;3.88;1.65;;;;;;;;;;5142054;27;20082;-75
2022/06/03 15:00:45;;;;;;;3.90;1.80;;;;;;;;;;5137960;27;20038;-76
2022/06/03 15:03:44;;;;;;;3.45;1.70;;;;;;;;;;5160943;27;20338;-76
2022/06/03 15:06:15;;;;;;;5.95;1.98;;;;;;;;;;5075041;27;20493;-76
2022/06/03 15:08:45;;;;;;;3.83;1.73;;;;;;;;;;5130848;27;20198;-76
2022/06/03 15:11:34;;;;;;;3.72;1.50;;;;;;;;;;5166305;27;20059;-76
2022/06/03 15:14:07;;;;;;;2.85;1.65;;;;;;;;;;5147458;27;20051;-76
2022/06/03 15:16:44;;;;;;;3.13;1.30;;;;;;;;;;5136717;27;20564;-76
2022/06/03 15:19:11;;;;;;;4.15;1.67;;;;;;;;;;5155425;27;20066;-76
2022/06/03 15:21:37;;;;;;;3.67;1.60;;;;;;;;;;5133729;27;21256;-76
2022/06/03 15:24:05;;;;;;;4.13;1.65;;;;;;;;;;5132008;27;20050;-76
2022/06/03 15:26:35;;;;;;;5.00;1.70;;;;;;;;;;5148507;27;20073;-76
2022/06/03 15:29:04;;;;;;;3.60;1.63;;;;;;;;;;5130799;27;20062;-77
2022/06/03 15:31:31;;;;;;;4.18;1.70;;;;;;;;;;5154741;27;20130;-75
2022/06/03 15:33:59;;;;;;;5.80;1.80;;;;;;;;;;5132952;27;20081;-75
2022/06/03 15:36:27;;;;;;;3.95;1.55;;;;;;;;;;5142411;27;20059;-75
2022/06/03 15:39:11;;;;;;;5.22;1.75;;;;;;;;;;5142136;27;20051;-75
2022/06/03 15:41:42;;;;;;;3.90;1.65;;;;;;;;;;5120196;27;20051;-76
2022/06/03 15:44:09;;;;;;;4.85;1.70;;;;;;;;;;5150995;27;20055;-75
2022/06/03 15:46:39;;;;;;;3.67;1.75;;;;;;;;;;5158147;27;20137;-75
2022/06/03 15:49:12;;;;;;;3.40;1.70;;;;;;;;;;5157214;27;20061;-76
2022/06/03 15:51:44;;;;;;;3.92;1.75;;;;;;;;;;5154084;27;20129;-75
2022/06/03 15:54:20;;;;;;;3.90;1.77;;;;;;;;;;5121087;27;20524;-75
2022/06/03 15:56:50;;;;;;;7.60;1.70;;;;;;;;;;5128242;27;20704;-75
2022/06/03 15:59:27;;;;;;;3.55;1.80;;;;;;;;;;5149956;27;20141;-75
2022/06/03 16:02:18;;;;;;;3.45;1.63;;;;;;;;;;5128658;27;20055;-75
2022/06/03 16:04:56;;;;;;;4.10;1.80;;;;;;;;;;5126104;27;20106;-76
2022/06/03 16:07:41;;;;;;;6.65;1.67;;;;;;;;;;5147905;27;20480;-76
2022/06/03 16:10:10;;;;;;;4.20;1.80;;;;;;;;;;5138584;27;20147;-75